EGLF - Farnborough
Distance from station: E 5mi, 14km
Updated: 08/15/2018 11:50pm
Drizzle, Mostly cloudy
Drizzle, Mostly cloudy
 Wind from SSW
Wind: SSW 12 mph , 19 km/h
Temperature: 63°F , 17°C
Dew Point: 61°F , 16°C
Humidity: 94%
Barometer: 29.91 inHg , 1013 hPa
Summary: Drizzle
Clouds: Mostly Cloudy
Visibility: 2 miles , 4 km
Cloud details: Partly Cloudy 500 ft
Mostly Cloudy 1000 ft
2018/08/16 06:50 EGLF 160650Z 20010KT 4000 DZ SCT005 BKN010 17/16 Q1013